Time;durP1;ratioP1;P1;durP2;ratioP2;P2;SDS_P1;SDS_P2;PMS_P1;PMS_P2;Temp;Humidity;BMP_temperature;BMP_pressure;BME280_temperature;BME280_humidity;BME280_pressure;Samples;Min_cycle;Max_cycle;Signal;HPM_P1;HPM_P2
2022/10/06 00:00:09;;;;;;;;;;;;;;;19.52;44.73;96359.66;6122220;19;1686;-63
2022/10/06 00:02:13;;;;;;;;;;;;;;;19.52;45.11;96359.66;6121829;19;1856;-64
2022/10/06 00:04:16;;;;;;;;;;;;;;;19.51;45.06;96363.34;6110797;19;1877;-67
2022/10/06 00:06:22;;;;;;;;;;;;;;;19.51;44.67;96366.00;6108783;19;1678;-64
2022/10/06 00:08:26;;;;;;;;;;;;;;;19.51;45.01;96363.34;6122987;19;1932;-64
2022/10/06 00:10:29;;;;;;;;;;;;;;;19.50;44.80;96367.84;6121898;19;1826;-64
2022/10/06 00:12:39;;;;;;;;;;;;;;;19.50;45.06;96359.84;6121498;19;1699;-65
2022/10/06 00:14:43;;;;;;;;;;;;;;;19.50;44.94;96361.69;6120379;19;1877;-64
2022/10/06 00:16:46;;;;;;;;;;;;;;;19.50;45.09;96359.03;6096602;19;1849;-64
2022/10/06 00:18:49;;;;;;;;;;;;;;;19.51;44.99;96356.19;6121040;19;1567;-65
2022/10/06 00:20:57;;;;;;;;;;;;;;;19.50;45.10;96356.38;6121203;19;1841;-64
2022/10/06 00:23:02;;;;;;;;;;;;;;;19.50;45.30;96356.38;6120306;19;1854;-64
2022/10/06 00:25:07;;;;;;;;;;;;;;;19.50;45.14;96348.38;6121306;19;1803;-65
2022/10/06 00:27:10;;;;;;;;;;;;;;;19.49;45.39;96352.00;6110238;19;1742;-64
2022/10/06 00:29:14;;;;;;;;;;;;;;;19.50;45.06;96359.84;6110988;19;1926;-65
2022/10/06 00:31:19;;;;;;;;;;;;;;;19.50;45.21;96356.38;6120926;19;1806;-64
2022/10/06 00:33:22;;;;;;;;;;;;;;;19.49;45.10;96352.88;6120699;19;1772;-64
2022/10/06 00:35:27;;;;;;;;;;;;;;;19.49;45.19;96346.69;6119909;19;1923;-64
2022/10/06 00:37:30;;;;;;;;;;;;;;;19.49;45.67;96349.34;6121301;19;1782;-64
2022/10/06 00:39:36;;;;;;;;;;;;;;;19.49;45.37;96349.34;6097830;19;1802;-64
2022/10/06 00:41:40;;;;;;;;;;;;;;;19.49;45.35;96347.53;6121337;19;1911;-65
2022/10/06 00:43:45;;;;;;;;;;;;;;;19.50;45.73;96351.03;6118726;19;1721;-64
2022/10/06 00:45:50;;;;;;;;;;;;;;;19.49;45.42;96344.00;6121401;19;1872;-64
2022/10/06 00:47:54;;;;;;;;;;;;;;;19.49;45.83;96341.34;6121043;19;1877;-66
2022/10/06 00:49:58;;;;;;;;;;;;;;;19.51;45.42;96344.69;6104522;19;1782;-63
2022/10/06 00:52:02;;;;;;;;;;;;;;;19.48;45.66;96337.03;6105651;19;1688;-64
2022/10/06 00:54:06;;;;;;;;;;;;;;;19.49;46.07;96333.34;6119395;19;1891;-64
2022/10/06 00:56:13;;;;;;;;;;;;;;;19.49;45.76;96325.34;6121002;19;1666;-64
2022/10/06 00:58:16;;;;;;;;;;;;;;;19.49;46.25;96328.88;6118229;19;1861;-64
2022/10/06 01:00:20;;;;;;;;;;;;;;;19.48;46.34;96318.38;6118452;19;1860;-65
2022/10/06 01:02:24;;;;;;;;;;;;;;;19.48;46.34;96327.19;6093923;19;2064;-63
2022/10/06 01:04:28;;;;;;;;;;;;;;;19.48;46.45;96318.38;6118600;19;2035;-64
2022/10/06 01:06:41;;;;;;;;;;;;;;;19.49;45.98;96317.34;6118629;19;1702;-64
2022/10/06 01:08:44;;;;;;;;;;;;;;;19.47;46.95;96309.56;6119879;19;1768;-64
2022/10/06 01:10:48;;;;;;;;;;;;;;;19.48;47.11;96318.38;6118623;19;1759;-64
2022/10/06 01:12:55;;;;;;;;;;;;;;;19.48;46.54;96313.03;6102045;19;1760;-65
2022/10/06 01:14:58;;;;;;;;;;;;;;;19.48;46.91;96307.72;6120445;19;1658;-66
2022/10/06 01:17:04;;;;;;;;;;;;;;;19.48;47.04;96305.03;6120501;19;1698;-63
2022/10/06 01:19:12;;;;;;;;;;;;;;;19.47;46.71;96301.56;6119596;19;1919;-64
2022/10/06 01:21:17;;;;;;;;;;;;;;;19.47;46.75;96295.41;6119308;19;1872;-63
2022/10/06 01:23:23;;;;;;;;;;;;;;;19.46;46.79;96286.53;6118329;19;1890;-63
2022/10/06 01:25:27;;;;;;;;;;;;;;;19.47;46.46;96295.41;6095382;19;1816;-64
2022/10/06 01:27:31;;;;;;;;;;;;;;;19.47;46.69;96292.72;6118465;19;1687;-64
2022/10/06 01:29:35;;;;;;;;;;;;;;;19.45;46.50;96288.38;6119118;19;1967;-63
2022/10/06 01:31:39;;;;;;;;;;;;;;;19.47;46.48;96290.06;6120195;19;1859;-63
2022/10/06 01:33:42;;;;;;;;;;;;;;;19.47;46.50;96295.41;6120214;19;1760;-63
2022/10/06 01:35:48;;;;;;;;;;;;;;;19.45;46.66;96285.72;6095565;19;1818;-64
2022/10/06 01:37:51;;;;;;;;;;;;;;;19.45;46.88;96291.06;6117658;19;1062;-63
2022/10/06 01:39:57;;;;;;;;;;;;;;;19.45;46.87;96284.91;6120421;19;1938;-64
2022/10/06 01:42:00;;;;;;;;;;;;;;;19.46;46.67;96297.22;6119571;19;1879;-63
2022/10/06 01:44:03;;;;;;;;;;;;;;;19.45;46.84;96287.56;6120693;19;1903;-64
2022/10/06 01:46:07;;;;;;;;;;;;;;;19.45;46.45;96288.38;6118691;19;1834;-64
2022/10/06 01:48:10;;;;;;;;;;;;;;;19.44;47.05;96284.06;6094317;19;1773;-65
2022/10/06 01:50:14;;;;;;;;;;;;;;;19.44;47.03;96292.06;6117700;19;1892;-66
2022/10/06 01:52:18;;;;;;;;;;;;;;;19.44;47.13;96292.06;6117985;19;1645;-64
2022/10/06 01:54:21;;;;;;;;;;;;;;;19.44;47.16;96284.06;6116944;19;1797;-64
2022/10/06 01:56:27;;;;;;;;;;;;;;;19.44;47.26;96292.06;6118521;19;1667;-65
2022/10/06 01:58:30;;;;;;;;;;;;;;;19.47;47.77;96296.22;6095604;19;1661;-65
2022/10/06 02:00:34;;;;;;;;;;;;;;;19.49;47.09;96290.69;6118759;19;1659;-66
2022/10/06 02:02:37;;;;;;;;;;;;;;;19.48;47.31;96295.22;6115746;19;1857;-64
2022/10/06 02:04:40;;;;;;;;;;;;;;;19.49;47.09;96291.56;6118971;19;1716;-65
2022/10/06 02:06:44;;;;;;;;;;;;;;;19.53;47.48;96302.72;6118074;19;1850;-62
2022/10/06 02:08:47;;;;;;;;;;;;;;;19.53;47.20;96297.41;6119283;19;1665;-64
2022/10/06 02:10:50;;;;;;;;;;;;;;;19.55;47.14;96295.38;6093524;19;1778;-63
2022/10/06 02:12:56;;;;;;;;;;;;;;;19.54;47.12;96304.38;6115839;19;1022;-65
2022/10/06 02:14:57;;;;;;;;;;;;;;;19.53;47.67;96300.88;6119893;19;1979;-63
2022/10/06 02:17:00;;;;;;;;;;;;;;;19.52;47.81;96301.88;6119184;19;1873;-64
2022/10/06 02:19:05;;;;;;;;;;;;;;;19.52;47.97;96301.00;6119074;19;1815;-65
2022/10/06 02:21:08;;;;;;;;;;;;;;;19.52;47.23;96301.00;6100440;19;1867;-67
2022/10/06 02:23:12;;;;;;;;;;;;;;;19.51;47.21;96296.69;6112984;19;1853;-65
2022/10/06 02:25:16;;;;;;;;;;;;;;;19.51;47.51;96305.53;6117102;19;2074;-64
2022/10/06 02:27:19;;;;;;;;;;;;;;;19.51;47.12;96296.69;6117697;19;1759;-66
2022/10/06 02:29:25;;;;;;;;;;;;;;;19.52;47.74;96295.69;6118266;19;1821;-64
2022/10/06 02:31:28;;;;;;;;;;;;;;;19.62;47.80;96293.69;6117694;19;1795;-63
2022/10/06 02:33:32;;;;;;;;;;;;;;;19.63;47.41;96287.31;6094395;19;1786;-66
2022/10/06 02:35:35;;;;;;;;;;;;;;;19.59;48.05;96291.38;6117819;19;1837;-66
2022/10/06 02:37:39;;;;;;;;;;;;;;;19.55;48.07;96295.38;6119183;19;1788;-66
2022/10/06 02:39:42;;;;;;;;;;;;;;;19.54;48.13;96296.38;6117760;19;1855;-67
2022/10/06 02:41:45;;;;;;;;;;;;;;;19.52;48.14;96299.22;6111822;19;1718;-67
2022/10/06 02:43:49;;;;;;;;;;;;;;;19.54;48.16;96299.06;6105763;19;1846;-67
2022/10/06 02:45:58;;;;;;;;;;;;;;;19.54;47.71;96301.72;6111586;19;1764;-65
2022/10/06 02:48:01;;;;;;;;;;;;;;;19.54;47.62;96307.03;6117736;19;1816;-65
2022/10/06 02:50:06;;;;;;;;;;;;;;;19.53;47.61;96308.06;6116587;19;1785;-68
2022/10/06 02:52:09;;;;;;;;;;;;;;;19.49;47.29;96301.38;6118344;19;1553;-63
2022/10/06 02:54:13;;;;;;;;;;;;;;;19.15;43.23;96299.81;6118419;19;1708;-66
2022/10/06 02:56:18;;;;;;;;;;;;;;;18.51;41.61;96305.91;6091884;19;2168;-65
2022/10/06 02:58:22;;;;;;;;;;;;;;;18.16;40.88;96303.56;6118031;19;1620;-65
2022/10/06 03:00:25;;;;;;;;;;;;;;;17.92;40.37;96310.50;6113344;19;1860;-67
2022/10/06 03:02:31;;;;;;;;;;;;;;;17.84;40.13;96311.34;6115621;19;1849;-65
2022/10/06 03:04:35;;;;;;;;;;;;;;;18.02;40.79;96313.03;6116597;19;1547;-65
2022/10/06 03:06:40;;;;;;;;;;;;;;;18.39;40.94;96309.91;6106558;19;1640;-62
2022/10/06 03:08:44;;;;;;;;;;;;;;;18.57;40.80;96304.41;6111330;19;1803;-64
2022/10/06 03:10:47;;;;;;;;;;;;;;;18.68;40.71;96309.41;6117653;19;1583;-65
2022/10/06 03:12:50;;;;;;;;;;;;;;;18.43;39.34;96305.88;6117239;19;1500;-67
2022/10/06 03:14:53;;;;;;;;;;;;;;;17.95;39.28;96304.84;6117621;19;1481;-69
2022/10/06 03:16:57;;;;;;;;;;;;;;;17.70;39.27;96303.09;6123989;19;1500;-68
2022/10/06 03:19:03;;;;;;;;;;;;;;;17.53;39.07;96305.72;6100830;19;1854;-68
2022/10/06 03:21:06;;;;;;;;;;;;;;;17.43;38.77;96303.19;6124323;19;1677;-69
2022/10/06 03:23:10;;;;;;;;;;;;;;;17.39;38.87;96301.03;6123153;19;1870;-69
2022/10/06 03:25:13;;;;;;;;;;;;;;;17.36;38.73;96307.50;6120859;19;1128;-71
2022/10/06 03:27:17;;;;;;;;;;;;;;;17.27;38.90;96307.59;6121654;19;1794;-69
2022/10/06 03:29:20;;;;;;;;;;;;;;;17.08;38.47;96300.72;6113090;19;1907;-68
2022/10/06 03:31:24;;;;;;;;;;;;;;;17.09;38.66;96299.72;6113989;19;1824;-68
2022/10/06 03:33:27;;;;;;;;;;;;;;;17.22;38.42;96307.25;6119129;19;1939;-67
2022/10/06 03:35:33;;;;;;;;;;;;;;;17.36;38.27;96298.69;6122669;19;1780;-67
2022/10/06 03:37:36;;;;;;;;;;;;;;;17.34;38.30;96287.38;6120197;19;1706;-68
2022/10/06 03:39:40;;;;;;;;;;;;;;;17.24;37.74;96282.19;6122468;19;1649;-67
2022/10/06 03:41:43;;;;;;;;;;;;;;;17.04;38.20;96288.72;6100638;19;1469;-67
2022/10/06 03:43:47;;;;;;;;;;;;;;;17.35;38.55;96289.84;6119329;19;1915;-64
2022/10/06 03:45:57;;;;;;;;;;;;;;;17.69;38.79;96283.66;6122263;19;2026;-64
2022/10/06 03:48:01;;;;;;;;;;;;;;;17.91;38.75;96284.09;6120128;19;1042;-64
2022/10/06 03:50:04;;;;;;;;;;;;;;;18.01;38.70;96285.59;6116184;19;1660;-66
2022/10/06 03:52:10;;;;;;;;;;;;;;;17.95;38.51;96286.22;6109809;19;1447;-64
2022/10/06 03:54:13;;;;;;;;;;;;;;;18.04;38.95;96274.63;6109057;19;1763;-68
2022/10/06 03:56:18;;;;;;;;;;;;;;;18.09;38.71;96277.59;6122347;19;1546;-65
2022/10/06 03:58:21;;;;;;;;;;;;;;;18.09;38.74;96276.78;6123681;19;1514;-66
2022/10/06 04:00:25;;;;;;;;;;;;;;;18.08;38.72;96278.63;6123372;19;1758;-66
2022/10/06 04:02:28;;;;;;;;;;;;;;;18.14;39.02;96278.97;6119407;19;1845;-66
2022/10/06 04:04:31;;;;;;;;;;;;;;;18.15;38.77;96283.28;6101561;19;1434;-66
2022/10/06 04:06:36;;;;;;;;;;;;;;;18.00;39.09;96285.75;6121278;19;1850;-64
2022/10/06 04:08:43;;;;;;;;;;;;;;;18.01;39.02;96290.06;6119102;19;1760;-64
2022/10/06 04:10:47;;;;;;;;;;;;;;;17.90;39.46;96280.59;6119918;19;1970;-66
2022/10/06 04:12:50;;;;;;;;;;;;;;;17.96;39.37;96282.59;6117754;19;1029;-65
2022/10/06 04:14:53;;;;;;;;;;;;;;;17.99;39.21;96284.94;6107730;19;1484;-67
2022/10/06 04:16:56;;;;;;;;;;;;;;;18.03;38.98;96290.75;6106460;19;1088;-64
2022/10/06 04:19:01;;;;;;;;;;;;;;;18.01;38.89;96288.25;6117494;19;1038;-63
2022/10/06 04:21:05;;;;;;;;;;;;;;;18.00;39.19;96297.22;6119778;19;1057;-65
2022/10/06 04:23:08;;;;;;;;;;;;;;;18.01;38.90;96290.91;6118540;19;1842;-64
2022/10/06 04:25:14;;;;;;;;;;;;;;;18.02;38.88;96294.41;6118565;19;1025;-64
2022/10/06 04:27:30;;;;;;;;;;;;;;;18.05;38.61;96296.75;6097909;19;1084;-64
2022/10/06 04:29:33;;;;;;;;;;;;;;;18.05;38.52;96291.41;6119376;19;1042;-68
2022/10/06 04:31:38;;;;;;;;;;;;;;;18.07;38.72;96300.91;6119471;19;1054;-64
2022/10/06 04:33:41;;;;;;;;;;;;;;;18.10;38.79;96297.09;6118619;19;1089;-65
2022/10/06 04:35:44;;;;;;;;;;;;;;;18.14;38.41;96297.56;6119018;19;1010;-64
2022/10/06 04:37:48;;;;;;;;;;;;;;;18.14;38.50;96298.41;6109984;19;1078;-64
2022/10/06 04:39:55;;;;;;;;;;;;;;;18.13;38.20;96299.41;6109148;19;1447;-64
2022/10/06 04:42:01;;;;;;;;;;;;;;;18.12;38.08;96299.56;6118457;19;1495;-64
2022/10/06 04:44:06;;;;;;;;;;;;;;;18.11;38.20;96290.75;6120626;19;1853;-63
2022/10/06 04:46:11;;;;;;;;;;;;;;;18.14;38.26;96301.06;6118745;19;1096;-65
2022/10/06 04:48:15;;;;;;;;;;;;;;;18.11;38.36;96312.03;6118529;19;1052;-63
2022/10/06 04:50:18;;;;;;;;;;;;;;;18.13;38.48;96309.22;6097452;19;1116;-63
2022/10/06 04:52:21;;;;;;;;;;;;;;;18.13;38.13;96309.22;6117929;19;1314;-64
2022/10/06 04:54:25;;;;;;;;;;;;;;;18.13;38.02;96309.22;6117858;19;892;-66
2022/10/06 04:56:29;;;;;;;;;;;;;;;18.12;38.29;96312.88;6120220;19;1019;-65
2022/10/06 04:58:35;;;;;;;;;;;;;;;18.14;37.79;96316.19;6119564;19;1771;-64
2022/10/06 05:00:39;;;;;;;;;;;;;;;18.13;38.07;96312.72;6106663;19;1395;-66
2022/10/06 05:02:43;;;;;;;;;;;;;;;18.13;38.11;96314.53;6108336;19;1183;-64
2022/10/06 05:04:47;;;;;;;;;;;;;;;18.14;37.92;96318.84;6116561;19;1862;-65
2022/10/06 05:06:50;;;;;;;;;;;;;;;18.12;37.92;96320.84;6118473;19;1069;-64
2022/10/06 05:08:55;;;;;;;;;;;;;;;18.12;38.04;96318.19;6117807;19;1115;-67
2022/10/06 05:11:01;;;;;;;;;;;;;;;18.10;37.72;96327.16;6118882;19;1009;-64
2022/10/06 05:13:05;;;;;;;;;;;;;;;18.10;38.28;96326.34;6096945;19;1162;-63
2022/10/06 05:15:11;;;;;;;;;;;;;;;18.11;37.73;96317.34;6118389;19;994;-64
2022/10/06 05:17:15;;;;;;;;;;;;;;;18.13;38.03;96320.69;6117802;19;966;-64
2022/10/06 05:19:18;;;;;;;;;;;;;;;18.13;37.62;96322.53;6118193;19;1124;-64
2022/10/06 05:21:22;;;;;;;;;;;;;;;18.14;37.88;96327.66;6118412;19;1053;-63
2022/10/06 05:23:26;;;;;;;;;;;;;;;18.14;37.99;96322.34;6095791;19;1830;-68
2022/10/06 05:25:30;;;;;;;;;;;;;;;18.15;38.04;96323.16;6116809;19;1141;-63
2022/10/06 05:27:33;;;;;;;;;;;;;;;18.15;37.77;96325.84;6117570;19;1050;-68
2022/10/06 05:29:37;;;;;;;;;;;;;;;18.18;37.97;96325.50;6117853;19;1145;-65
2022/10/06 05:31:44;;;;;;;;;;;;;;;18.23;37.51;96325.84;6116099;19;1422;-64
2022/10/06 05:33:47;;;;;;;;;;;;;;;18.26;37.12;96328.16;6117822;19;1030;-63
2022/10/06 05:35:54;;;;;;;;;;;;;;;18.23;36.90;96331.16;6096884;19;1182;-65
2022/10/06 05:37:57;;;;;;;;;;;;;;;18.25;37.19;96329.19;6116184;19;1026;-65
2022/10/06 05:40:00;;;;;;;;;;;;;;;18.28;36.81;96328.84;6117132;19;1090;-62
2022/10/06 05:42:04;;;;;;;;;;;;;;;18.24;36.59;96317.72;6118188;19;1625;-63
2022/10/06 05:44:07;;;;;;;;;;;;;;;18.28;36.28;96323.53;6117275;19;1857;-63
2022/10/06 05:46:16;;;;;;;;;;;;;;;18.24;36.26;96312.41;6096682;19;1022;-63
2022/10/06 05:48:22;;;;;;;;;;;;;;;18.18;36.28;96321.03;6117741;19;1179;-64
2022/10/06 05:50:25;;;;;;;;;;;;;;;18.16;36.19;96324.84;6116746;19;1087;-64
2022/10/06 05:52:29;;;;;;;;;;;;;;;18.17;36.04;96321.19;6116928;19;1279;-66
2022/10/06 05:54:32;;;;;;;;;;;;;;;18.09;35.74;96325.47;6115465;19;1474;-63
2022/10/06 05:56:37;;;;;;;;;;;;;;;18.13;36.11;96328.66;6117248;19;1073;-63
2022/10/06 05:58:41;;;;;;;;;;;;;;;18.17;36.15;96321.19;6098725;19;1538;-64
2022/10/06 06:00:44;;;;;;;;;;;;;;;18.21;35.75;96312.72;6116682;19;1633;-63
2022/10/06 06:02:48;;;;;;;;;;;;;;;18.21;36.29;96322.50;6117183;19;1039;-63
2022/10/06 06:04:54;;;;;;;;;;;;;;;18.20;36.34;96327.00;6115877;19;1893;-63
2022/10/06 06:06:57;;;;;;;;;;;;;;;18.19;36.28;96329.84;6117387;19;999;-64
2022/10/06 06:09:01;;;;;;;;;;;;;;;18.20;36.09;96326.19;6096123;19;1081;-63
2022/10/06 06:11:08;;;;;;;;;;;;;;;18.22;36.25;96324.19;6116662;19;1145;-63
2022/10/06 06:13:12;;;;;;;;;;;;;;;18.23;36.22;96320.53;6117359;19;1041;-63
2022/10/06 06:17:33;;;;;;;;;;;;;;;18.06;36.58;96330.31;6117784;19;1276;-63
2022/10/06 06:19:36;;;;;;;;;;;;;;;18.18;36.82;96328.16;6106350;19;1137;-63
2022/10/06 06:21:42;;;;;;;;;;;;;;;18.18;36.33;96334.34;6105580;19;1054;-63
2022/10/06 06:23:46;;;;;;;;;;;;;;;18.16;36.71;96319.53;6115439;19;1845;-63
2022/10/06 06:25:58;;;;;;;;;;;;;;;18.16;36.66;96325.69;6115255;19;1451;-63
2022/10/06 06:28:01;;;;;;;;;;;;;;;18.04;36.82;96332.28;6116509;19;1162;-64
2022/10/06 06:30:05;;;;;;;;;;;;;;;17.91;37.17;96338.09;6116937;19;1038;-65
2022/10/06 06:32:08;;;;;;;;;;;;;;;17.72;37.49;96341.00;6095105;19;1061;-63
2022/10/06 06:34:12;;;;;;;;;;;;;;;17.37;38.11;96333.06;6116470;19;1109;-63
2022/10/06 06:36:16;;;;;;;;;;;;;;;17.53;38.17;96334.97;6116586;19;973;-64
2022/10/06 06:38:22;;;;;;;;;;;;;;;17.72;38.06;96336.50;6116039;19;1028;-63
2022/10/06 06:40:25;;;;;;;;;;;;;;;17.90;37.92;96339.09;6114942;19;1460;-64
2022/10/06 06:42:28;;;;;;;;;;;;;;;18.08;37.62;96339.78;6106258;19;1041;-63
2022/10/06 06:44:33;;;;;;;;;;;;;;;18.21;37.57;96339.31;6103404;19;1846;-63
2022/10/06 06:46:36;;;;;;;;;;;;;;;18.30;37.74;96341.00;6113731;19;1400;-65
2022/10/06 06:48:40;;;;;;;;;;;;;;;18.06;37.13;96336.44;6117168;19;1135;-64
2022/10/06 06:50:44;;;;;;;;;;;;;;;18.06;37.90;96340.94;6120766;19;1129;-65
2022/10/06 06:52:47;;;;;;;;;;;;;;;17.88;38.26;96338.41;6120063;19;1303;-64
2022/10/06 06:54:53;;;;;;;;;;;;;;;17.74;38.40;96337.22;6101578;19;1188;-63
2022/10/06 06:56:57;;;;;;;;;;;;;;;17.58;38.22;96334.47;6122305;19;1058;-63
2022/10/06 06:59:00;;;;;;;;;;;;;;;17.75;38.52;96330.88;6121982;19;1280;-63
2022/10/06 07:01:10;;;;;;;;;;;;;;;17.86;38.32;96327.09;6121517;19;963;-64
2022/10/06 07:03:15;;;;;;;;;;;;;;;17.22;39.49;96334.66;6122151;19;1259;-64
2022/10/06 07:05:18;;;;;;;;;;;;;;;16.87;40.03;96323.19;6108511;19;1838;-64
2022/10/06 07:07:22;;;;;;;;;;;;;;;16.62;40.87;96330.09;6110236;19;1045;-65
2022/10/06 07:09:27;;;;;;;;;;;;;;;17.02;40.06;96326.06;6119974;19;1335;-63
2022/10/06 07:11:33;;;;;;;;;;;;;;;17.37;39.21;96326.91;6121810;19;1132;-64
2022/10/06 07:13:37;;;;;;;;;;;;;;;17.47;39.01;96335.59;6119914;19;1541;-65
2022/10/06 07:27:04;;;;;;;;;;;;;;;17.65;39.05;96317.72;6121767;19;855;-65
2022/10/06 07:29:07;;;;;;;;;;;;;;;17.69;38.82;96317.41;6099285;19;1148;-64
2022/10/06 07:31:11;;;;;;;;;;;;;;;17.78;38.84;96316.44;6121073;19;1276;-64
2022/10/06 07:33:14;;;;;;;;;;;;;;;17.99;38.53;96316.00;6121520;19;1022;-65
2022/10/06 07:35:18;;;;;;;;;;;;;;;18.15;38.77;96315.19;6120715;19;1530;-64
2022/10/06 07:37:22;;;;;;;;;;;;;;;18.24;38.26;96306.22;6120592;19;1011;-64
2022/10/06 07:39:26;;;;;;;;;;;;;;;18.23;38.67;96309.88;6110301;19;1183;-64
2022/10/06 07:41:31;;;;;;;;;;;;;;;17.80;38.62;96309.16;6110371;19;1014;-63
2022/10/06 07:43:37;;;;;;;;;;;;;;;17.74;39.16;96310.63;6120755;19;939;-63
2022/10/06 07:45:40;;;;;;;;;;;;;;;17.59;39.05;96310.41;6118305;19;1852;-63
2022/10/06 07:47:44;;;;;;;;;;;;;;;17.59;39.48;96307.75;6120614;19;1163;-63
2022/10/06 07:49:47;;;;;;;;;;;;;;;17.76;39.37;96313.97;6120511;19;1532;-64
2022/10/06 07:51:52;;;;;;;;;;;;;;;18.00;38.75;96315.00;6098073;19;1283;-64
2022/10/06 07:53:55;;;;;;;;;;;;;;;17.76;39.28;96310.47;6120566;19;1097;-63
2022/10/06 07:56:04;;;;;;;;;;;;;;;17.97;39.01;96312.69;6120753;19;1107;-63
2022/10/06 07:58:12;;;;;;;;;;;;;;;18.10;38.86;96313.88;6119823;19;1164;-64
2022/10/06 08:00:21;;;;;;;;;;;;;;;17.52;39.82;96305.88;6117057;19;1458;-62
2022/10/06 08:02:25;;;;;;;;;;;;;;;16.96;40.39;96306.28;6097057;19;1444;-69
2022/10/06 08:04:29;;;;;;;;;;;;;;;17.34;39.93;96316.59;6118026;19;1854;-63
2022/10/06 08:06:32;;;;;;;;;;;;;;;17.41;40.27;96304.34;6119900;19;1129;-65
2022/10/06 08:08:36;;;;;;;;;;;;;;;17.58;39.94;96306.06;6120067;19;1067;-63
2022/10/06 08:10:40;;;;;;;;;;;;;;;17.56;39.79;96310.72;6120323;19;1054;-64
2022/10/06 08:12:43;;;;;;;;;;;;;;;17.53;40.14;96302.25;6120098;19;1121;-63
2022/10/06 08:14:46;;;;;;;;;;;;;;;17.51;40.03;96304.22;6098883;19;1081;-63
2022/10/06 08:16:53;;;;;;;;;;;;;;;17.71;39.67;96310.09;6120757;19;1010;-63
2022/10/06 08:18:58;;;;;;;;;;;;;;;17.96;39.55;96314.50;6119524;19;1014;-66
2022/10/06 08:21:01;;;;;;;;;;;;;;;17.82;39.58;96307.16;6119771;19;1057;-63
2022/10/06 08:23:11;;;;;;;;;;;;;;;17.66;39.45;96302.59;6119668;19;1127;-65
2022/10/06 08:25:14;;;;;;;;;;;;;;;17.54;40.08;96299.41;6098344;19;1845;-64
2022/10/06 08:27:17;;;;;;;;;;;;;;;17.59;39.82;96297.09;6119715;19;1071;-65
2022/10/06 08:29:21;;;;;;;;;;;;;;;17.63;39.83;96298.44;6119021;19;1063;-64
2022/10/06 08:31:25;;;;;;;;;;;;;;;17.84;39.82;96297.19;6120573;19;1188;-64
2022/10/06 08:33:30;;;;;;;;;;;;;;;18.06;39.49;96299.22;6120179;19;1034;-64
2022/10/06 08:35:38;;;;;;;;;;;;;;;18.18;39.33;96297.09;6117761;19;1494;-65
2022/10/06 08:37:41;;;;;;;;;;;;;;;18.30;38.98;96286.94;6101796;19;1443;-64
2022/10/06 08:39:45;;;;;;;;;;;;;;;17.97;39.48;96294.06;6119796;19;1014;-63
2022/10/06 08:41:53;;;;;;;;;;;;;;;17.80;39.49;96294.03;6119799;19;1117;-65
2022/10/06 08:44:03;;;;;;;;;;;;;;;17.85;39.40;96288.22;6119419;19;1045;-64
2022/10/06 08:46:06;;;;;;;;;;;;;;;17.69;39.65;96291.63;6118560;19;1853;-64
2022/10/06 08:48:13;;;;;;;;;;;;;;;17.68;39.95;96286.50;6098410;19;987;-65
2022/10/06 08:50:20;;;;;;;;;;;;;;;17.77;39.48;96288.22;6118680;19;1122;-64
2022/10/06 08:52:37;;;;;;;;;;;;;;;17.71;39.55;96283.50;6117147;19;1436;-64
2022/10/06 08:54:43;;;;;;;;;;;;;;;17.81;39.45;96292.19;6118898;19;1099;-64
2022/10/06 08:56:53;;;;;;;;;;;;;;;17.82;39.71;96283.25;6119948;19;1595;-65
2022/10/06 08:58:58;;;;;;;;;;;;;;;17.72;39.82;96286.00;6110325;19;1754;-64
2022/10/06 09:01:02;;;;;;;;;;;;;;;17.76;39.59;96287.38;6111253;19;974;-63
2022/10/06 09:03:06;;;;;;;;;;;;;;;17.75;39.39;96290.19;6118776;19;952;-66
2022/10/06 09:05:11;;;;;;;;;;;;;;;17.85;39.66;96290.88;6117218;19;1853;-66
2022/10/06 09:07:16;;;;;;;;;;;;;;;17.90;39.40;96293.91;6121539;19;1789;-64
2022/10/06 09:09:34;;;;;;;;;;;;;;;17.84;41.12;96298.03;6118628;19;1015;-66
2022/10/06 09:11:47;;;;;;;;;;;;;;;17.98;41.40;96288.59;6093485;19;1408;-64
2022/10/06 09:13:53;;;;;;;;;;;;;;;18.23;40.81;96276.13;6114004;19;1438;-64
2022/10/06 09:15:58;;;;;;;;;;;;;;;18.43;41.25;96289.94;6118252;19;1050;-65
2022/10/06 09:18:04;;;;;;;;;;;;;;;18.12;41.29;96276.44;6118718;19;871;-63
2022/10/06 09:20:19;;;;;;;;;;;;;;;18.06;40.99;96274.44;6117996;19;1027;-66
2022/10/06 09:22:23;;;;;;;;;;;;;;;18.27;41.13;96273.97;6097987;19;1234;-65
2022/10/06 09:24:36;;;;;;;;;;;;;;;18.38;41.31;96278.13;6117729;19;1133;-64
2022/10/06 09:26:42;;;;;;;;;;;;;;;18.43;40.82;96268.63;6118643;19;1273;-63
2022/10/06 09:28:48;;;;;;;;;;;;;;;18.43;41.10;96271.28;6117484;19;1014;-64
2022/10/06 09:30:52;;;;;;;;;;;;;;;18.44;41.12;96267.66;6118463;19;1112;-64
2022/10/06 09:32:57;;;;;;;;;;;;;;;18.42;41.10;96261.66;6108116;19;1046;-65
2022/10/06 09:35:03;;;;;;;;;;;;;;;18.37;40.71;96263.97;6107834;19;1232;-66
2022/10/06 09:37:08;;;;;;;;;;;;;;;17.80;41.88;96266.59;6117549;19;1169;-64
2022/10/06 09:39:23;;;;;;;;;;;;;;;17.55;42.55;96258.53;6117363;19;1095;-64
2022/10/06 09:41:30;;;;;;;;;;;;;;;17.42;41.83;96253.69;6117881;19;1160;-65
2022/10/06 09:43:33;;;;;;;;;;;;;;;17.56;41.38;96254.91;6116951;19;1021;-65
2022/10/06 09:45:44;;;;;;;;;;;;;;;17.42;40.60;96247.56;6095079;19;1857;-64
2022/10/06 09:47:47;;;;;;;;;;;;;;;17.28;40.30;96250.84;6117050;19;1128;-64
2022/10/06 09:50:04;;;;;;;;;;;;;;;17.55;40.83;96247.91;6116226;19;1097;-63
2022/10/06 09:52:13;;;;;;;;;;;;;;;17.51;40.23;96251.91;6115666;19;1488;-65
2022/10/06 09:54:18;;;;;;;;;;;;;;;17.80;40.66;96245.34;6117646;19;1591;-63
2022/10/06 09:56:22;;;;;;;;;;;;;;;17.73;39.76;96246.97;6095290;19;1281;-65
2022/10/06 09:58:31;;;;;;;;;;;;;;;17.71;40.47;96248.97;6116251;19;1066;-63
2022/10/06 10:00:36;;;;;;;;;;;;;;;17.94;40.19;96247.34;6115236;19;1490;-64
2022/10/06 10:02:42;;;;;;;;;;;;;;;17.87;39.59;96241.03;6118122;19;1014;-66
2022/10/06 10:04:45;;;;;;;;;;;;;;;18.01;39.93;96243.06;6116964;19;1042;-67
2022/10/06 10:06:49;;;;;;;;;;;;;;;18.19;40.37;96244.72;6106653;19;1439;-67
2022/10/06 10:08:53;;;;;;;;;;;;;;;18.39;39.78;96239.88;6106713;19;1340;-66
2022/10/06 10:12:23;;;;;;;;;;;;;;;18.51;39.73;96233.19;6116765;19;1042;-66
2022/10/06 10:13:44;;;;;;;;;;;;;;;18.55;39.44;96232.72;6116307;19;1032;-68
2022/10/06 10:15:55;;;;;;;;;;;;;;;18.03;38.71;96234.88;6117348;19;955;-65
2022/10/06 10:18:02;;;;;;;;;;;;;;;17.81;38.98;96229.25;6107991;19;1045;-64
2022/10/06 10:20:09;;;;;;;;;;;;;;;17.84;38.73;96223.59;6106120;19;1270;-64
2022/10/06 10:22:21;;;;;;;;;;;;;;;17.93;39.48;96229.75;6116976;19;1064;-66
2022/10/06 10:24:33;;;;;;;;;;;;;;;18.15;39.22;96224.75;6120014;19;1034;-67
2022/10/06 10:26:45;;;;;;;;;;;;;;;18.29;39.08;96224.06;6121776;19;1865;-66
2022/10/06 10:28:59;;;;;;;;;;;;;;;18.26;39.03;96221.75;6122414;19;1106;-63
2022/10/06 10:31:10;;;;;;;;;;;;;;;18.25;39.68;96212.13;6097544;19;1592;-63
2022/10/06 10:33:19;;;;;;;;;;;;;;;18.20;39.39;96201.97;6122631;19;962;-66
2022/10/06 10:35:26;;;;;;;;;;;;;;;18.23;39.70;96209.59;6121755;19;1070;-70
2022/10/06 10:37:32;;;;;;;;;;;;;;;18.25;39.42;96206.78;6122580;19;1115;-65
2022/10/06 10:39:39;;;;;;;;;;;;;;;18.22;39.34;96202.63;6122178;19;1112;-62
2022/10/06 10:41:47;;;;;;;;;;;;;;;18.26;38.55;96193.31;6099448;19;1341;-61
2022/10/06 10:43:52;;;;;;;;;;;;;;;18.25;37.88;96198.81;6121563;19;1046;-61
2022/10/06 10:45:58;;;;;;;;;;;;;;;18.19;37.70;96191.50;6120768;19;1850;-62
2022/10/06 10:48:03;;;;;;;;;;;;;;;18.04;37.37;96188.66;6122196;19;1129;-62
2022/10/06 10:50:18;;;;;;;;;;;;;;;18.05;38.01;96190.34;6120572;19;1101;-64
2022/10/06 10:52:26;;;;;;;;;;;;;;;18.12;38.19;96190.50;6110069;19;1295;-68
2022/10/06 10:54:31;;;;;;;;;;;;;;;18.23;38.25;96185.66;6111236;19;1117;-66
2022/10/06 10:56:35;;;;;;;;;;;;;;;18.28;38.40;96180.69;6121799;19;1041;-67
2022/10/06 10:58:40;;;;;;;;;;;;;;;18.29;37.47;96184.16;6121419;19;1056;-63
2022/10/06 11:00:47;;;;;;;;;;;;;;;18.32;37.25;96182.03;6121794;19;1171;-64
2022/10/06 11:02:51;;;;;;;;;;;;;;;18.42;37.54;96175.69;6122188;19;1006;-64
2022/10/06 11:04:59;;;;;;;;;;;;;;;18.62;38.21;96182.28;6098306;19;1313;-65
2022/10/06 11:07:14;;;;;;;;;;;;;;;18.78;39.24;96176.09;6119492;19;1904;-67
2022/10/06 11:09:19;;;;;;;;;;;;;;;18.87;38.73;96175.06;6122255;19;1056;-67
2022/10/06 11:11:28;;;;;;;;;;;;;;;18.90;38.88;96171.22;6121283;19;1026;-67
2022/10/06 11:13:37;;;;;;;;;;;;;;;18.87;38.91;96175.06;6121057;19;1236;-67